Archival Weather

Republic

Farmingdale, New York (KFRG)

Report from: Tuesday, January 30, 2024 12:48 PM EST
Current time: Friday, June 21, 2024 3:40 AM EDT

Current weather – Weather history – Daily summaries
Weather forecast

Temperature2.0°C (35.6°F)
Wind chill-0.7°C (30.7°F)
Dew point-4.0°C (24.8°F)
Winds 5 kts (2.6 m/s, 5.8 mph) Southeast (140°)
Visibility10 mi. (16.1 km)
Clouds Ceiling: Overcast 3,000 ft. (914 m)
Altimeter30.21 in.Hg (1023 mB)
Relative humidity64 %
Density altitude-1,842 ft. (-561 m)
Remarks Automated weather observing station without precipitation discriminator
Flight conditions Visual Meteorological Conditions
Raw dataKFRG 301748Z 14005KT 10SM OVC030 02/M04 A3021 RMK AO1
An error has occurred. This application may no longer respond until reloaded. Reload 🗙